Adams, North Dakota
Current Conditions -  °F | °C
As of 11:15 AM on Saturday 20 Dec 2014 (Local Time) from KD55 Reporting Station
Moderate Fog Moderate Fog  
Wind Chill: 15°   Ceiling: 100
Heat Index: 23°   Visibility: 0.25mi
Dew Point: 21°   Wind: 7mph
Humidity: 93%   Direction: 160°SSE
Pressure: 29.92"   Gusts: NA
Location:  48.42°N, 98.08°W
Report Text: KD55 201715Z AUTO 16006KT 1/4SM FZFG OVC001 M05/M06 A2992 RMK AO2
Loading
Personal Weather Stations






























Interactive Weather Map New forecast layout! Learn more

10-Day Weather Forecast

Advertisements
Track Severe Weather on mobile